sensor_id;sensor_type;location;lat;lon;timestamp;pressure;altitude;pressure_sealevel;temperature;humidity
71857;BME280;59712;46.980;28.882;2022-07-29T00:00:14;100930.78;;;24.61;57.54
71857;BME280;59712;46.980;28.882;2022-07-29T00:03:02;100931.06;;;24.58;57.38
71857;BME280;59712;46.980;28.882;2022-07-29T00:05:29;100934.78;;;24.57;57.54
71857;BME280;59712;46.980;28.882;2022-07-29T00:07:56;100926.63;;;24.57;57.91
71857;BME280;59712;46.980;28.882;2022-07-29T00:10:23;100933.19;;;24.54;57.49
71857;BME280;59712;46.980;28.882;2022-07-29T00:12:51;100933.34;;;24.53;57.49
71857;BME280;59712;46.980;28.882;2022-07-29T00:15:18;100928.16;;;24.50;57.74
71857;BME280;59712;46.980;28.882;2022-07-29T00:17:45;100933.19;;;24.44;58.27
71857;BME280;59712;46.980;28.882;2022-07-29T00:20:12;100930.59;;;24.43;58.20
71857;BME280;59712;46.980;28.882;2022-07-29T00:22:39;100930.28;;;24.36;58.29
71857;BME280;59712;46.980;28.882;2022-07-29T00:25:07;100931.44;;;24.34;58.28
71857;BME280;59712;46.980;28.882;2022-07-29T00:27:35;100933.44;;;24.32;58.35
71857;BME280;59712;46.980;28.882;2022-07-29T00:30:03;100938.28;;;24.28;58.33
71857;BME280;59712;46.980;28.882;2022-07-29T00:32:32;100933.16;;;24.25;58.70
71857;BME280;59712;46.980;28.882;2022-07-29T00:34:59;100939.72;;;24.22;58.71
71857;BME280;59712;46.980;28.882;2022-07-29T00:37:45;100924.69;;;24.18;58.95
71857;BME280;59712;46.980;28.882;2022-07-29T00:40:13;100933.84;;;24.17;58.58
71857;BME280;59712;46.980;28.882;2022-07-29T00:42:47;100935.72;;;24.17;59.23
71857;BME280;59712;46.980;28.882;2022-07-29T00:45:16;100924.16;;;24.15;58.98
71857;BME280;59712;46.980;28.882;2022-07-29T00:47:44;100927.00;;;24.13;58.91
71857;BME280;59712;46.980;28.882;2022-07-29T00:50:12;100929.00;;;24.11;58.98
71857;BME280;59712;46.980;28.882;2022-07-29T00:52:43;100919.41;;;24.07;59.10
71857;BME280;59712;46.980;28.882;2022-07-29T00:55:29;100924.13;;;24.05;59.30
71857;BME280;59712;46.980;28.882;2022-07-29T00:57:58;100927.09;;;24.02;59.18
71857;BME280;59712;46.980;28.882;2022-07-29T01:00:27;100919.97;;;24.01;59.32
71857;BME280;59712;46.980;28.882;2022-07-29T01:02:55;100919.09;;;24.00;59.46
71857;BME280;59712;46.980;28.882;2022-07-29T01:05:26;100909.38;;;23.98;59.48
71857;BME280;59712;46.980;28.882;2022-07-29T01:08:15;100914.81;;;23.98;59.49
71857;BME280;59712;46.980;28.882;2022-07-29T01:10:44;100913.13;;;23.97;59.59
71857;BME280;59712;46.980;28.882;2022-07-29T01:13:11;100916.81;;;23.96;59.57
71857;BME280;59712;46.980;28.882;2022-07-29T01:15:44;100917.97;;;23.93;59.54
71857;BME280;59712;46.980;28.882;2022-07-29T01:18:39;100909.09;;;23.91;59.59
71857;BME280;59712;46.980;28.882;2022-07-29T01:24:08;100914.66;;;23.90;59.79
71857;BME280;59712;46.980;28.882;2022-07-29T01:34:41;100907.78;;;23.85;60.05
71857;BME280;59712;46.980;28.882;2022-07-29T01:37:18;100909.53;;;23.87;59.90
71857;BME280;59712;46.980;28.882;2022-07-29T01:39:49;100906.09;;;23.84;60.02
71857;BME280;59712;46.980;28.882;2022-07-29T01:42:29;100909.91;;;23.82;60.58
71857;BME280;59712;46.980;28.882;2022-07-29T01:45:08;100918.06;;;23.82;60.32
71857;BME280;59712;46.980;28.882;2022-07-29T01:47:44;100923.34;;;23.83;60.40
71857;BME280;59712;46.980;28.882;2022-07-29T01:50:16;100920.91;;;23.80;60.58
71857;BME280;59712;46.980;28.882;2022-07-29T01:52:55;100928.19;;;23.80;60.49
71857;BME280;59712;46.980;28.882;2022-07-29T01:55:28;100920.06;;;23.80;60.70
71857;BME280;59712;46.980;28.882;2022-07-29T01:57:57;100917.72;;;23.75;60.46
71857;BME280;59712;46.980;28.882;2022-07-29T02:00:27;100914.16;;;23.75;60.63
71857;BME280;59712;46.980;28.882;2022-07-29T02:02:55;100922.44;;;23.73;60.83
71857;BME280;59712;46.980;28.882;2022-07-29T02:05:23;100924.44;;;23.71;60.96
71857;BME280;59712;46.980;28.882;2022-07-29T02:07:55;100922.69;;;23.70;60.61
71857;BME280;59712;46.980;28.882;2022-07-29T02:10:27;100929.84;;;23.71;61.21
71857;BME280;59712;46.980;28.882;2022-07-29T02:12:58;100932.69;;;23.70;61.21
71857;BME280;59712;46.980;28.882;2022-07-29T02:15:32;100932.56;;;23.71;60.84
71857;BME280;59712;46.980;28.882;2022-07-29T02:18:04;100932.25;;;23.64;61.19
71857;BME280;59712;46.980;28.882;2022-07-29T02:20:33;100925.25;;;23.62;61.25
71857;BME280;59712;46.980;28.882;2022-07-29T02:23:02;100922.94;;;23.57;61.08
71857;BME280;59712;46.980;28.882;2022-07-29T02:25:29;100934.94;;;23.55;61.13
71857;BME280;59712;46.980;28.882;2022-07-29T02:28:05;100935.19;;;23.52;61.60
71857;BME280;59712;46.980;28.882;2022-07-29T02:30:36;100927.19;;;23.50;61.45
71857;BME280;59712;46.980;28.882;2022-07-29T02:33:08;100933.63;;;23.49;61.26
71857;BME280;59712;46.980;28.882;2022-07-29T02:35:37;100930.78;;;23.51;61.18
71857;BME280;59712;46.980;28.882;2022-07-29T02:38:06;100933.75;;;23.48;60.74
71857;BME280;59712;46.980;28.882;2022-07-29T02:40:55;100934.88;;;23.45;60.81
71857;BME280;59712;46.980;28.882;2022-07-29T02:43:24;100927.72;;;23.44;60.70
71857;BME280;59712;46.980;28.882;2022-07-29T02:45:53;100933.28;;;23.42;60.89
71857;BME280;59712;46.980;28.882;2022-07-29T02:48:27;100937.13;;;23.40;60.57
71857;BME280;59712;46.980;28.882;2022-07-29T02:51:05;100938.25;;;23.37;60.62
71857;BME280;59712;46.980;28.882;2022-07-29T02:53:35;100936.53;;;23.36;60.18
71857;BME280;59712;46.980;28.882;2022-07-29T02:56:16;100933.81;;;23.36;60.41
71857;BME280;59712;46.980;28.882;2022-07-29T02:58:55;100935.81;;;23.34;60.22
71857;BME280;59712;46.980;28.882;2022-07-29T03:01:25;100936.81;;;23.33;60.26
71857;BME280;59712;46.980;28.882;2022-07-29T03:03:53;100940.50;;;23.32;59.99
71857;BME280;59712;46.980;28.882;2022-07-29T03:06:22;100937.97;;;23.31;59.96
71857;BME280;59712;46.980;28.882;2022-07-29T03:09:06;100937.06;;;23.30;59.90
71857;BME280;59712;46.980;28.882;2022-07-29T03:11:40;100935.25;;;23.31;59.51
71857;BME280;59712;46.980;28.882;2022-07-29T03:14:19;100936.09;;;23.31;59.02
71857;BME280;59712;46.980;28.882;2022-07-29T03:16:48;100940.50;;;23.32;58.49
71857;BME280;59712;46.980;28.882;2022-07-29T03:19:16;100942.25;;;23.33;58.12
71857;BME280;59712;46.980;28.882;2022-07-29T03:21:43;100941.38;;;23.33;57.82
71857;BME280;59712;46.980;28.882;2022-07-29T03:24:33;100949.38;;;23.34;58.25
71857;BME280;59712;46.980;28.882;2022-07-29T03:27:01;100946.53;;;23.36;57.74
71857;BME280;59712;46.980;28.882;2022-07-29T03:29:29;100950.09;;;23.36;57.98
71857;BME280;59712;46.980;28.882;2022-07-29T03:32:02;100954.41;;;23.39;57.80
71857;BME280;59712;46.980;28.882;2022-07-29T03:34:34;100958.09;;;23.38;57.44
71857;BME280;59712;46.980;28.882;2022-07-29T03:37:01;100957.84;;;23.41;56.68
71857;BME280;59712;46.980;28.882;2022-07-29T03:39:33;100957.13;;;23.39;56.39
71857;BME280;59712;46.980;28.882;2022-07-29T03:42:04;100960.81;;;23.38;55.91
71857;BME280;59712;46.980;28.882;2022-07-29T03:44:34;100966.34;;;23.36;56.23
71857;BME280;59712;46.980;28.882;2022-07-29T03:47:02;100967.38;;;23.35;55.92
71857;BME280;59712;46.980;28.882;2022-07-29T03:49:36;100973.75;;;23.34;55.92
71857;BME280;59712;46.980;28.882;2022-07-29T03:52:05;100976.47;;;23.34;55.32
71857;BME280;59712;46.980;28.882;2022-07-29T03:54:33;100971.22;;;23.33;55.57
71857;BME280;59712;46.980;28.882;2022-07-29T03:57:01;100975.75;;;23.32;55.80
71857;BME280;59712;46.980;28.882;2022-07-29T03:59:32;100977.59;;;23.32;55.54
71857;BME280;59712;46.980;28.882;2022-07-29T04:02:02;100981.16;;;23.32;55.62
71857;BME280;59712;46.980;28.882;2022-07-29T04:04:32;100975.63;;;23.34;55.41
71857;BME280;59712;46.980;28.882;2022-07-29T04:07:00;100985.50;;;23.35;55.18
71857;BME280;59712;46.980;28.882;2022-07-29T04:09:27;100979.34;;;23.33;55.24
71857;BME280;59712;46.980;28.882;2022-07-29T04:11:55;100981.16;;;23.32;55.50
71857;BME280;59712;46.980;28.882;2022-07-29T04:14:33;100989.19;;;23.34;54.95
71857;BME280;59712;46.980;28.882;2022-07-29T04:17:01;100981.16;;;23.32;55.34
71857;BME280;59712;46.980;28.882;2022-07-29T04:19:29;100984.75;;;23.33;55.32
71857;BME280;59712;46.980;28.882;2022-07-29T04:21:57;100986.75;;;23.31;54.86
71857;BME280;59712;46.980;28.882;2022-07-29T04:24:26;100983.31;;;23.29;55.03
71857;BME280;59712;46.980;28.882;2022-07-29T04:26:53;100987.84;;;23.28;54.96
71857;BME280;59712;46.980;28.882;2022-07-29T04:29:21;100986.16;;;23.27;55.09
71857;BME280;59712;46.980;28.882;2022-07-29T04:31:48;100992.28;;;23.29;54.84
71857;BME280;59712;46.980;28.882;2022-07-29T04:34:15;100987.00;;;23.27;54.59
71857;BME280;59712;46.980;28.882;2022-07-29T04:36:44;100991.56;;;23.27;54.86
71857;BME280;59712;46.980;28.882;2022-07-29T04:39:11;100990.97;;;23.23;56.69
71857;BME280;59712;46.980;28.882;2022-07-29T04:41:38;100984.88;;;23.10;57.69
71857;BME280;59712;46.980;28.882;2022-07-29T04:44:08;100996.63;;;22.99;58.28
71857;BME280;59712;46.980;28.882;2022-07-29T04:46:37;100993.81;;;22.90;59.05
71857;BME280;59712;46.980;28.882;2022-07-29T04:49:08;100999.91;;;22.82;59.59
71857;BME280;59712;46.980;28.882;2022-07-29T04:51:36;101005.22;;;22.72;60.19
71857;BME280;59712;46.980;28.882;2022-07-29T04:54:04;100998.97;;;22.60;60.99
71857;BME280;59712;46.980;28.882;2022-07-29T04:56:32;101007.00;;;22.51;61.47
71857;BME280;59712;46.980;28.882;2022-07-29T04:59:02;101014.66;;;22.45;61.34
71857;BME280;59712;46.980;28.882;2022-07-29T05:01:29;101021.31;;;22.41;61.78
71857;BME280;59712;46.980;28.882;2022-07-29T05:03:56;101021.31;;;22.41;62.26
71857;BME280;59712;46.980;28.882;2022-07-29T05:06:27;101032.28;;;22.40;62.30
71857;BME280;59712;46.980;28.882;2022-07-29T05:08:55;101041.25;;;22.40;62.68
71857;BME280;59712;46.980;28.882;2022-07-29T05:11:23;101049.50;;;22.39;62.24
71857;BME280;59712;46.980;28.882;2022-07-29T05:13:56;101061.31;;;22.38;61.75
71857;BME280;59712;46.980;28.882;2022-07-29T05:16:23;101070.28;;;22.38;61.75
71857;BME280;59712;46.980;28.882;2022-07-29T05:18:50;101088.66;;;22.35;62.46
71857;BME280;59712;46.980;28.882;2022-07-29T05:21:21;101101.06;;;22.26;63.73
71857;BME280;59712;46.980;28.882;2022-07-29T05:23:49;101118.38;;;22.12;64.56
71857;BME280;59712;46.980;28.882;2022-07-29T05:26:16;101114.31;;;21.95;66.20
71857;BME280;59712;46.980;28.882;2022-07-29T05:28:43;101123.50;;;21.81;66.52
71857;BME280;59712;46.980;28.882;2022-07-29T05:31:11;101121.75;;;21.69;67.18
71857;BME280;59712;46.980;28.882;2022-07-29T05:33:38;101116.69;;;21.53;68.08
71857;BME280;59712;46.980;28.882;2022-07-29T05:36:06;101112.41;;;21.38;68.73
71857;BME280;59712;46.980;28.882;2022-07-29T05:38:38;101114.47;;;21.23;70.01
71857;BME280;59712;46.980;28.882;2022-07-29T05:41:22;101108.34;;;21.08;70.28
71857;BME280;59712;46.980;28.882;2022-07-29T05:43:50;101101.06;;;20.97;70.88
71857;BME280;59712;46.980;28.882;2022-07-29T05:46:17;101097.56;;;20.84;71.83
71857;BME280;59712;46.980;28.882;2022-07-29T05:48:44;101098.47;;;20.72;72.59
71857;BME280;59712;46.980;28.882;2022-07-29T05:51:11;101091.03;;;20.62;74.78
71857;BME280;59712;46.980;28.882;2022-07-29T05:53:38;101096.22;;;20.53;75.68
71857;BME280;59712;46.980;28.882;2022-07-29T05:56:06;101094.84;;;20.47;76.76
71857;BME280;59712;46.980;28.882;2022-07-29T05:58:34;101097.22;;;20.39;78.33
71857;BME280;59712;46.980;28.882;2022-07-29T06:01:01;101106.75;;;20.32;77.62
71857;BME280;59712;46.980;28.882;2022-07-29T06:03:29;101101.03;;;20.23;76.99
71857;BME280;59712;46.980;28.882;2022-07-29T06:06:00;101100.19;;;20.10;79.86
71857;BME280;59712;46.980;28.882;2022-07-29T06:08:27;101099.31;;;19.97;79.18
71857;BME280;59712;46.980;28.882;2022-07-29T06:10:54;101096.53;;;19.85;79.98
71857;BME280;59712;46.980;28.882;2022-07-29T06:13:22;101089.09;;;19.76;79.99
71857;BME280;59712;46.980;28.882;2022-07-29T06:15:49;101092.28;;;19.68;80.44
71857;BME280;59712;46.980;28.882;2022-07-29T06:18:16;101093.38;;;19.66;80.71
71857;BME280;59712;46.980;28.882;2022-07-29T06:20:44;101097.78;;;19.67;81.61
71857;BME280;59712;46.980;28.882;2022-07-29T06:23:11;101098.75;;;19.66;81.75
71857;BME280;59712;46.980;28.882;2022-07-29T06:25:40;101099.63;;;19.66;82.58
71857;BME280;59712;46.980;28.882;2022-07-29T06:28:08;101094.31;;;19.65;82.66
71857;BME280;59712;46.980;28.882;2022-07-29T06:30:37;101091.09;;;19.60;82.67
71857;BME280;59712;46.980;28.882;2022-07-29T06:33:05;101090.53;;;19.55;83.10
71857;BME280;59712;46.980;28.882;2022-07-29T06:35:36;101085.56;;;19.48;83.76
71857;BME280;59712;46.980;28.882;2022-07-29T06:38:12;101086.75;;;19.44;84.29
71857;BME280;59712;46.980;28.882;2022-07-29T06:41:00;101070.06;;;19.39;84.37
71857;BME280;59712;46.980;28.882;2022-07-29T06:43:41;101070.25;;;19.36;84.67
71857;BME280;59712;46.980;28.882;2022-07-29T06:46:21;101069.50;;;19.34;84.64
71857;BME280;59712;46.980;28.882;2022-07-29T06:48:50;101068.66;;;19.34;84.76
71857;BME280;59712;46.980;28.882;2022-07-29T06:51:19;101059.50;;;19.36;84.94
71857;BME280;59712;46.980;28.882;2022-07-29T06:53:51;101065.31;;;19.43;85.06
71857;BME280;59712;46.980;28.882;2022-07-29T06:56:29;101062.97;;;19.51;85.04
71857;BME280;59712;46.980;28.882;2022-07-29T06:58:57;101060.91;;;19.55;84.48
71857;BME280;59712;46.980;28.882;2022-07-29T07:01:24;101051.09;;;19.54;82.95
71857;BME280;59712;46.980;28.882;2022-07-29T07:03:51;101046.56;;;19.54;83.88
71857;BME280;59712;46.980;28.882;2022-07-29T07:06:19;101047.44;;;19.55;83.35
71857;BME280;59712;46.980;28.882;2022-07-29T07:08:46;101049.06;;;19.57;83.46
71857;BME280;59712;46.980;28.882;2022-07-29T07:11:13;101053.38;;;19.60;83.70
71857;BME280;59712;46.980;28.882;2022-07-29T07:13:40;101047.00;;;19.61;83.24
71857;BME280;59712;46.980;28.882;2022-07-29T07:16:08;101058.22;;;19.67;83.17
71857;BME280;59712;46.980;28.882;2022-07-29T07:18:35;101060.63;;;19.72;83.51
71857;BME280;59712;46.980;28.882;2022-07-29T07:21:08;101069.25;;;19.77;84.20
71857;BME280;59712;46.980;28.882;2022-07-29T07:23:35;101072.59;;;19.81;83.84
71857;BME280;59712;46.980;28.882;2022-07-29T07:26:02;101067.00;;;19.84;83.95
71857;BME280;59712;46.980;28.882;2022-07-29T07:28:30;101066.88;;;19.85;83.39
71857;BME280;59712;46.980;28.882;2022-07-29T07:30:57;101074.84;;;19.87;83.14
71857;BME280;59712;46.980;28.882;2022-07-29T07:33:25;101073.88;;;19.88;83.36
71857;BME280;59712;46.980;28.882;2022-07-29T07:35:52;101077.22;;;19.92;84.03
71857;BME280;59712;46.980;28.882;2022-07-29T07:38:19;101081.78;;;19.91;83.43
71857;BME280;59712;46.980;28.882;2022-07-29T07:40:46;101075.72;;;19.87;82.74
71857;BME280;59712;46.980;28.882;2022-07-29T07:43:14;101085.00;;;19.83;82.78
71857;BME280;59712;46.980;28.882;2022-07-29T07:45:41;101085.00;;;19.83;82.29
71857;BME280;59712;46.980;28.882;2022-07-29T07:48:12;101085.00;;;19.83;81.03
71857;BME280;59712;46.980;28.882;2022-07-29T07:50:39;101091.16;;;19.85;81.99
71857;BME280;59712;46.980;28.882;2022-07-29T07:53:07;101090.81;;;19.90;81.68
71857;BME280;59712;46.980;28.882;2022-07-29T07:55:40;101093.41;;;19.92;82.00
71857;BME280;59712;46.980;28.882;2022-07-29T07:58:30;101095.78;;;19.96;81.55
71857;BME280;59712;46.980;28.882;2022-07-29T08:00:59;101100.06;;;19.99;81.26
71857;BME280;59712;46.980;28.882;2022-07-29T08:03:26;101102.47;;;20.03;81.36
71857;BME280;59712;46.980;28.882;2022-07-29T08:05:54;101108.19;;;20.12;81.51
71857;BME280;59712;46.980;28.882;2022-07-29T08:08:21;101107.63;;;20.19;81.37
71857;BME280;59712;46.980;28.882;2022-07-29T08:10:48;101101.78;;;20.25;81.36
71857;BME280;59712;46.980;28.882;2022-07-29T08:13:31;101110.09;;;20.35;81.23
71857;BME280;59712;46.980;28.882;2022-07-29T08:15:59;101109.31;;;20.46;81.15
71857;BME280;59712;46.980;28.882;2022-07-29T08:18:29;101105.94;;;20.55;80.95
71857;BME280;59712;46.980;28.882;2022-07-29T08:20:58;101107.34;;;20.61;80.80
71857;BME280;59712;46.980;28.882;2022-07-29T08:23:27;101101.63;;;20.65;79.88
71857;BME280;59712;46.980;28.882;2022-07-29T08:26:15;101107.97;;;20.77;80.03
71857;BME280;59712;46.980;28.882;2022-07-29T08:28:43;101109.09;;;20.86;79.76
71857;BME280;59712;46.980;28.882;2022-07-29T08:31:18;101103.34;;;20.91;78.65
71857;BME280;59712;46.980;28.882;2022-07-29T08:33:45;101106.56;;;20.96;78.71
71857;BME280;59712;46.980;28.882;2022-07-29T08:36:16;101111.63;;;21.00;78.10
71857;BME280;59712;46.980;28.882;2022-07-29T08:38:44;101101.56;;;21.02;77.41
71857;BME280;59712;46.980;28.882;2022-07-29T08:41:11;101103.69;;;21.10;79.30
71857;BME280;59712;46.980;28.882;2022-07-29T08:43:40;101090.81;;;21.14;78.85
71857;BME280;59712;46.980;28.882;2022-07-29T08:46:08;101093.75;;;21.11;75.53
71857;BME280;59712;46.980;28.882;2022-07-29T08:48:36;101109.94;;;21.11;76.30
71857;BME280;59712;46.980;28.882;2022-07-29T08:51:03;101092.25;;;21.06;75.76
71857;BME280;59712;46.980;28.882;2022-07-29T08:53:32;101099.75;;;21.03;75.84
71857;BME280;59712;46.980;28.882;2022-07-29T08:56:01;101102.47;;;21.03;75.07
71857;BME280;59712;46.980;28.882;2022-07-29T08:58:32;101111.06;;;21.08;75.22
71857;BME280;59712;46.980;28.882;2022-07-29T09:01:03;101106.78;;;21.17;75.41
71857;BME280;59712;46.980;28.882;2022-07-29T09:03:35;101103.00;;;21.19;75.27
71857;BME280;59712;46.980;28.882;2022-07-29T09:06:04;101113.09;;;21.28;75.81
71857;BME280;59712;46.980;28.882;2022-07-29T09:08:32;101114.56;;;21.45;76.21
71857;BME280;59712;46.980;28.882;2022-07-29T09:11:01;101118.53;;;21.64;76.77
71857;BME280;59712;46.980;28.882;2022-07-29T09:13:29;101124.25;;;21.83;76.03
71857;BME280;59712;46.980;28.882;2022-07-29T09:15:57;101117.88;;;21.96;74.49
71857;BME280;59712;46.980;28.882;2022-07-29T09:21:06;101124.50;;;22.14;73.08
71857;BME280;59712;46.980;28.882;2022-07-29T09:24:13;101123.53;;;22.15;72.45
71857;BME280;59712;46.980;28.882;2022-07-29T09:26:43;101112.59;;;22.05;70.20
71857;BME280;59712;46.980;28.882;2022-07-29T09:29:17;101112.94;;;21.90;70.70
71857;BME280;59712;46.980;28.882;2022-07-29T09:31:47;101111.31;;;21.76;71.62
71857;BME280;59712;46.980;28.882;2022-07-29T09:34:20;101110.19;;;21.67;71.82
71857;BME280;59712;46.980;28.882;2022-07-29T09:36:51;101113.97;;;21.64;72.64
71857;BME280;59712;46.980;28.882;2022-07-29T09:39:39;101113.59;;;21.58;73.20
71857;BME280;59712;46.980;28.882;2022-07-29T09:42:42;101113.50;;;21.59;72.95
71857;BME280;59712;46.980;28.882;2022-07-29T09:45:35;101115.72;;;21.65;70.74
71857;BME280;59712;46.980;28.882;2022-07-29T09:48:26;101118.44;;;21.65;71.88
71857;BME280;59712;46.980;28.882;2022-07-29T09:50:54;101122.47;;;21.60;71.30
71857;BME280;59712;46.980;28.882;2022-07-29T09:53:34;101123.31;;;21.49;70.89
71857;BME280;59712;46.980;28.882;2022-07-29T09:56:05;101118.38;;;21.43;71.44
71857;BME280;59712;46.980;28.882;2022-07-29T09:58:33;101121.25;;;21.40;72.16
71857;BME280;59712;46.980;28.882;2022-07-29T10:01:02;101119.13;;;21.45;73.07
71857;BME280;59712;46.980;28.882;2022-07-29T10:03:30;101130.41;;;21.50;72.52
71857;BME280;59712;46.980;28.882;2022-07-29T10:06:11;101125.16;;;21.60;71.95
71857;BME280;59712;46.980;28.882;2022-07-29T10:08:41;101129.41;;;21.75;72.77
71857;BME280;59712;46.980;28.882;2022-07-29T10:11:17;101120.06;;;21.91;72.01
71857;BME280;59712;46.980;28.882;2022-07-29T10:13:46;101125.75;;;21.99;70.05
71857;BME280;59712;46.980;28.882;2022-07-29T10:16:14;101118.59;;;21.98;69.41
71857;BME280;59712;46.980;28.882;2022-07-29T10:18:44;101119.34;;;22.00;69.67
71857;BME280;59712;46.980;28.882;2022-07-29T10:21:12;101119.13;;;22.03;69.45
71857;BME280;59712;46.980;28.882;2022-07-29T10:24:01;101125.13;;;22.06;70.11
71857;BME280;59712;46.980;28.882;2022-07-29T10:26:29;101125.50;;;22.02;70.04
71857;BME280;59712;46.980;28.882;2022-07-29T10:28:57;101132.13;;;21.98;70.30
71857;BME280;59712;46.980;28.882;2022-07-29T10:31:52;101131.16;;;21.99;71.03
71857;BME280;59712;46.980;28.882;2022-07-29T10:43:41;101138.88;;;21.81;70.75
71857;BME280;59712;46.980;28.882;2022-07-29T10:46:13;101128.16;;;21.79;71.51
71857;BME280;59712;46.980;28.882;2022-07-29T11:02:45;101128.56;;;21.51;73.13
71857;BME280;59712;46.980;28.882;2022-07-29T11:05:19;101128.94;;;21.46;73.61
71857;BME280;59712;46.980;28.882;2022-07-29T11:10:52;101118.78;;;21.01;73.31
71857;BME280;59712;46.980;28.882;2022-07-29T11:16:14;101129.22;;;20.82;74.73
71857;BME280;59712;46.980;28.882;2022-07-29T11:21:44;101131.97;;;20.93;77.34
71857;BME280;59712;46.980;28.882;2022-07-29T11:24:29;101132.84;;;20.94;77.39
71857;BME280;59712;46.980;28.882;2022-07-29T11:27:18;101131.63;;;20.98;76.50
71857;BME280;59712;46.980;28.882;2022-07-29T11:29:58;101131.75;;;20.96;76.06
71857;BME280;59712;46.980;28.882;2022-07-29T11:32:39;101126.88;;;21.01;75.48
71857;BME280;59712;46.980;28.882;2022-07-29T11:35:17;101126.41;;;21.07;75.80
71857;BME280;59712;46.980;28.882;2022-07-29T11:41:26;101122.66;;;21.21;76.34
71857;BME280;59712;46.980;28.882;2022-07-29T11:44:01;101119.03;;;21.34;75.61
71857;BME280;59712;46.980;28.882;2022-07-29T11:46:49;101122.66;;;21.45;75.60
71857;BME280;59712;46.980;28.882;2022-07-29T11:49:26;101115.69;;;21.54;75.81
71857;BME280;59712;46.980;28.882;2022-07-29T11:51:59;101110.91;;;21.58;74.72
71857;BME280;59712;46.980;28.882;2022-07-29T11:54:32;101116.84;;;21.63;74.68
71857;BME280;59712;46.980;28.882;2022-07-29T11:57:20;101118.53;;;21.64;73.83
71857;BME280;59712;46.980;28.882;2022-07-29T11:59:48;101122.72;;;21.68;73.38
71857;BME280;59712;46.980;28.882;2022-07-29T12:02:16;101114.63;;;21.68;72.87
71857;BME280;59712;46.980;28.882;2022-07-29T12:05:08;101114.13;;;21.74;72.98
71857;BME280;59712;46.980;28.882;2022-07-29T12:07:40;101123.25;;;21.73;73.42
71857;BME280;59712;46.980;28.882;2022-07-29T12:10:13;101126.91;;;21.72;73.73
71857;BME280;59712;46.980;28.882;2022-07-29T12:12:55;101116.47;;;21.67;73.88
71857;BME280;59712;46.980;28.882;2022-07-29T12:15:22;101115.47;;;21.68;73.25
71857;BME280;59712;46.980;28.882;2022-07-29T12:18:13;101121.13;;;21.65;73.32
71857;BME280;59712;46.980;28.882;2022-07-29T12:20:47;101117.81;;;21.62;73.14
71857;BME280;59712;46.980;28.882;2022-07-29T12:23:17;101118.06;;;21.59;73.80
71857;BME280;59712;46.980;28.882;2022-07-29T12:25:48;101114.47;;;21.58;73.33
71857;BME280;59712;46.980;28.882;2022-07-29T12:28:15;101114.25;;;21.61;73.33
71857;BME280;59712;46.980;28.882;2022-07-29T12:30:53;101118.53;;;21.64;73.78
71857;BME280;59712;46.980;28.882;2022-07-29T12:33:23;101115.84;;;21.64;74.51
71857;BME280;59712;46.980;28.882;2022-07-29T12:35:56;101105.03;;;21.64;74.37
71857;BME280;59712;46.980;28.882;2022-07-29T12:38:40;101105.03;;;21.64;75.39
71857;BME280;59712;46.980;28.882;2022-07-29T12:41:08;101091.50;;;21.64;76.22
71857;BME280;59712;46.980;28.882;2022-07-29T12:43:35;101087.22;;;21.61;75.10
71857;BME280;59712;46.980;28.882;2022-07-29T12:46:14;101088.91;;;21.62;74.29
71857;BME280;59712;46.980;28.882;2022-07-29T12:48:43;101078.97;;;21.63;74.21
71857;BME280;59712;46.980;28.882;2022-07-29T12:51:12;101084.25;;;21.64;74.76
71857;BME280;59712;46.980;28.882;2022-07-29T12:53:41;101078.09;;;21.62;74.50
71857;BME280;59712;46.980;28.882;2022-07-29T12:56:15;101077.03;;;21.65;74.06
71857;BME280;59712;46.980;28.882;2022-07-29T13:01:40;101073.22;;;21.67;75.03
71857;BME280;59712;46.980;28.882;2022-07-29T13:04:07;101060.53;;;21.68;75.46
71857;BME280;59712;46.980;28.882;2022-07-29T13:06:43;101066.69;;;21.70;74.82
71857;BME280;59712;46.980;28.882;2022-07-29T13:09:18;101056.72;;;21.71;74.60
71857;BME280;59712;46.980;28.882;2022-07-29T13:11:48;101053.16;;;21.70;74.83
71857;BME280;59712;46.980;28.882;2022-07-29T13:14:33;101048.88;;;21.67;75.39
71857;BME280;59712;46.980;28.882;2022-07-29T13:17:05;101050.56;;;21.68;75.30
71857;BME280;59712;46.980;28.882;2022-07-29T13:22:14;101056.13;;;21.78;75.90
71857;BME280;59712;46.980;28.882;2022-07-29T13:25:08;101044.22;;;21.81;75.47
71857;BME280;59712;46.980;28.882;2022-07-29T13:27:39;101045.31;;;21.78;75.07
71857;BME280;59712;46.980;28.882;2022-07-29T13:30:08;101044.56;;;21.76;75.59
71857;BME280;59712;46.980;28.882;2022-07-29T13:32:40;101034.50;;;21.78;75.42
71857;BME280;59712;46.980;28.882;2022-07-29T13:35:08;101025.41;;;21.79;75.30
71857;BME280;59712;46.980;28.882;2022-07-29T13:37:36;101023.56;;;21.80;75.13
71857;BME280;59712;46.980;28.882;2022-07-29T13:40:07;101018.03;;;21.81;74.60
71857;BME280;59712;46.980;28.882;2022-07-29T13:42:35;101007.97;;;21.83;74.30
71857;BME280;59712;46.980;28.882;2022-07-29T13:45:03;101006.00;;;21.85;74.06
71857;BME280;59712;46.980;28.882;2022-07-29T13:47:31;101001.78;;;21.93;73.92
71857;BME280;59712;46.980;28.882;2022-07-29T13:50:03;101001.56;;;22.07;74.60
71857;BME280;59712;46.980;28.882;2022-07-29T13:52:33;100998.22;;;22.26;73.67
71857;BME280;59712;46.980;28.882;2022-07-29T13:55:02;100996.75;;;22.33;73.46
71857;BME280;59712;46.980;28.882;2022-07-29T13:57:32;100991.22;;;22.35;72.46